createdAt,value
2023-05-18T00:00:36.319Z,90.07
2023-05-18T00:01:40.988Z,90.42
2023-05-18T00:02:43.345Z,90.22
2023-05-18T00:03:46.034Z,90.44
2023-05-18T00:04:48.504Z,90.43
2023-05-18T00:05:50.736Z,90.94
2023-05-18T00:07:03.470Z,90.38
2023-05-18T00:08:05.695Z,90.54
2023-05-18T00:09:08.080Z,90.74
2023-05-18T00:10:11.124Z,90.91
2023-05-18T00:11:13.319Z,91.26
2023-05-18T00:12:15.595Z,91.22
2023-05-18T00:13:17.813Z,90.87
2023-05-18T00:14:20.173Z,91.32
2023-05-18T00:15:22.350Z,91.24
2023-05-18T00:16:24.538Z,91.26
2023-05-18T00:17:27.086Z,91.30
2023-05-18T00:18:29.535Z,91.36
2023-05-18T00:19:31.770Z,91.47
2023-05-18T00:20:34.751Z,91.58
2023-05-18T00:21:36.907Z,91.32
2023-05-18T00:22:42.837Z,91.25
2023-05-18T00:23:49.626Z,91.61
2023-05-18T00:24:52.033Z,91.97
2023-05-18T00:25:54.191Z,92.01
2023-05-18T00:26:56.362Z,91.80
2023-05-18T00:27:58.753Z,91.79
2023-05-18T00:29:01.014Z,92.44
2023-05-18T00:30:03.438Z,92.32
2023-05-18T00:31:06.529Z,92.31
2023-05-18T00:32:08.689Z,92.35
2023-05-18T00:33:10.941Z,92.33
2023-05-18T00:34:14.271Z,92.24
2023-05-18T00:35:16.493Z,92.36
2023-05-18T00:36:18.593Z,92.39
2023-05-18T00:37:20.960Z,92.74
2023-05-18T00:38:23.127Z,92.29
2023-05-18T00:39:25.589Z,92.58
2023-05-18T00:40:28.954Z,92.55
2023-05-18T00:41:31.376Z,92.96
2023-05-18T00:42:33.747Z,92.84
2023-05-18T00:43:36.091Z,92.55
2023-05-18T00:44:38.238Z,92.40
2023-05-18T00:45:40.789Z,92.13
2023-05-18T00:46:44.310Z,92.43
2023-05-18T00:47:47.298Z,92.33
2023-05-18T00:48:50.989Z,92.61
2023-05-18T00:49:53.234Z,92.59
2023-05-18T00:50:55.548Z,92.58
2023-05-18T00:51:57.724Z,92.74
2023-05-18T00:53:00.093Z,92.56
2023-05-18T00:54:03.719Z,92.77
2023-05-18T00:55:06.784Z,93.10
2023-05-18T00:56:10.264Z,93.14
2023-05-18T00:57:12.732Z,93.54
2023-05-18T00:58:14.890Z,93.36
2023-05-18T00:59:18.711Z,93.36
2023-05-18T01:00:21.322Z,93.37
2023-05-18T01:01:28.870Z,93.17
2023-05-18T01:02:31.793Z,93.00
2023-05-18T01:03:34.559Z,93.03
2023-05-18T01:04:38.131Z,93.11
2023-05-18T01:05:40.322Z,93.39
2023-05-18T01:06:42.778Z,93.62
2023-05-18T01:07:44.977Z,93.29
2023-05-18T01:08:48.553Z,93.42
2023-05-18T01:09:50.962Z,93.93
2023-05-18T01:11:08.255Z,93.66
2023-05-18T01:12:19.513Z,93.98
2023-05-18T01:13:28.004Z,93.67
2023-05-18T01:14:34.392Z,93.78
2023-05-18T01:15:39.166Z,93.96
2023-05-18T01:16:53.750Z,93.90
2023-05-18T01:18:21.833Z,93.79
2023-05-18T01:19:50.314Z,94.18
2023-05-18T01:21:13.538Z,94.50
2023-05-18T01:22:44.271Z,94.21
2023-05-18T01:24:16.072Z,94.14
2023-05-18T01:26:01.026Z,94.22
2023-05-18T01:27:04.546Z,94.43
2023-05-18T01:28:12.574Z,94.48
2023-05-18T01:29:15.890Z,94.66
2023-05-18T01:30:18.318Z,94.79
2023-05-18T01:31:20.618Z,94.67
2023-05-18T01:32:22.802Z,94.80
2023-05-18T01:33:25.457Z,94.59
2023-05-18T01:34:27.648Z,94.53
2023-05-18T01:35:30.018Z,94.88
2023-05-18T01:36:32.677Z,94.69
2023-05-18T01:37:34.859Z,95.04
2023-05-18T01:38:37.961Z,94.46
2023-05-18T01:39:40.763Z,94.66
2023-05-18T01:41:05.751Z,94.24
2023-05-18T01:42:12.918Z,94.64
2023-05-18T01:43:17.829Z,94.85
2023-05-18T01:44:43.641Z,94.77
2023-05-18T01:45:47.621Z,94.47
2023-05-18T01:47:11.582Z,94.40
2023-05-18T01:48:14.868Z,94.70
2023-05-18T01:49:17.823Z,94.84
2023-05-18T01:50:23.535Z,95.01
2023-05-18T01:51:31.452Z,94.95
2023-05-18T01:52:40.205Z,94.79
2023-05-18T01:53:45.878Z,95.03
2023-05-18T01:54:51.728Z,94.97
2023-05-18T01:55:55.742Z,94.96
2023-05-18T01:56:58.894Z,95.10
2023-05-18T01:58:01.351Z,95.37
2023-05-18T01:59:03.757Z,95.05
2023-05-18T02:00:08.051Z,95.47
2023-05-18T02:01:10.528Z,95.14
2023-05-18T02:02:12.983Z,95.10
2023-05-18T02:03:15.282Z,95.19
2023-05-18T02:04:17.635Z,95.34
2023-05-18T02:05:19.946Z,94.92
2023-05-18T02:06:22.234Z,95.23
2023-05-18T02:07:24.394Z,95.31
2023-05-18T02:08:26.650Z,95.12
2023-05-18T02:09:28.841Z,95.04
2023-05-18T02:10:31.133Z,95.24
2023-05-18T02:11:33.283Z,94.99
2023-05-18T02:12:35.641Z,95.35
2023-05-18T02:13:37.820Z,95.45
2023-05-18T02:14:39.984Z,95.38
2023-05-18T02:15:42.209Z,95.39
2023-05-18T02:16:47.357Z,95.64
2023-05-18T02:17:50.053Z,95.51
2023-05-18T02:18:53.198Z,95.33
2023-05-18T02:19:56.370Z,95.73
2023-05-18T02:21:01.433Z,95.66
2023-05-18T02:22:07.029Z,95.78
2023-05-18T02:23:09.233Z,95.71
2023-05-18T02:24:12.559Z,95.71
2023-05-18T02:25:14.700Z,95.31
2023-05-18T02:26:16.909Z,95.25
2023-05-18T02:27:19.034Z,95.43
2023-05-18T02:28:24.126Z,95.23
2023-05-18T02:29:26.244Z,95.50
2023-05-18T02:30:29.325Z,95.37
2023-05-18T02:31:31.716Z,95.40
2023-05-18T02:32:38.673Z,95.43
2023-05-18T02:33:41.018Z,95.92
2023-05-18T02:34:43.335Z,95.69
2023-05-18T02:35:45.896Z,95.79
2023-05-18T02:36:48.795Z,95.84
2023-05-18T02:37:50.948Z,95.88
2023-05-18T02:38:53.163Z,95.68
2023-05-18T02:39:55.330Z,95.54
2023-05-18T02:40:57.571Z,95.82
2023-05-18T02:42:00.228Z,96.01
2023-05-18T02:43:02.406Z,96.06
2023-05-18T02:44:05.747Z,95.93
2023-05-18T02:45:08.434Z,96.09
2023-05-18T02:46:10.688Z,96.04
2023-05-18T02:47:12.853Z,96.28
2023-05-18T02:48:15.067Z,96.28
2023-05-18T02:49:17.241Z,96.12
2023-05-18T02:50:19.554Z,96.33
2023-05-18T02:51:21.935Z,96.28
2023-05-18T02:52:24.122Z,96.35
2023-05-18T02:53:26.647Z,96.22
2023-05-18T02:54:28.835Z,96.08
2023-05-18T02:55:31.247Z,96.07
2023-05-18T02:56:33.698Z,96.06
2023-05-18T02:57:35.868Z,96.29
2023-05-18T02:58:38.741Z,96.18
2023-05-18T02:59:40.959Z,96.30
2023-05-18T03:00:43.189Z,96.32
2023-05-18T03:01:45.568Z,96.22
2023-05-18T03:02:48.501Z,96.38
2023-05-18T03:03:51.499Z,96.24
2023-05-18T03:04:57.539Z,96.28
2023-05-18T03:06:00.534Z,96.32
2023-05-18T03:07:02.897Z,96.09
2023-05-18T03:08:05.300Z,96.39
2023-05-18T03:09:07.533Z,96.26
2023-05-18T03:10:09.858Z,96.20
2023-05-18T03:11:12.003Z,96.33
2023-05-18T03:12:14.141Z,96.27
2023-05-18T03:13:16.352Z,96.47
2023-05-18T03:14:18.474Z,96.61
2023-05-18T03:15:20.711Z,96.37
2023-05-18T03:16:28.324Z,96.34
2023-05-18T03:17:30.604Z,96.37
2023-05-18T03:18:32.802Z,96.32
2023-05-18T03:19:35.297Z,96.39
2023-05-18T03:20:38.138Z,95.99
2023-05-18T03:21:40.298Z,96.14
2023-05-18T03:22:42.437Z,96.22
2023-05-18T03:23:44.639Z,96.05
2023-05-18T03:24:46.804Z,96.00
2023-05-18T03:25:53.733Z,95.58
2023-05-18T03:26:57.118Z,95.99
2023-05-18T03:27:59.630Z,95.84
2023-05-18T03:29:02.235Z,95.81
2023-05-18T03:30:04.734Z,95.86
2023-05-18T03:31:06.997Z,95.69
2023-05-18T03:32:09.148Z,95.81
2023-05-18T03:33:12.249Z,95.51
2023-05-18T03:34:14.755Z,95.33
2023-05-18T03:35:16.978Z,95.50
2023-05-18T03:36:19.088Z,95.70
2023-05-18T03:37:21.290Z,95.40
2023-05-18T03:38:23.439Z,95.28
2023-05-18T03:39:25.595Z,95.20
2023-05-18T03:40:27.903Z,95.08
2023-05-18T03:41:30.220Z,95.57
2023-05-18T03:42:32.397Z,95.70
2023-05-18T03:43:34.533Z,95.84
2023-05-18T03:44:36.829Z,96.14
2023-05-18T03:45:38.996Z,96.02
2023-05-18T03:46:41.257Z,95.96
2023-05-18T03:47:43.445Z,95.67
2023-05-18T03:48:45.665Z,95.73
2023-05-18T03:49:47.842Z,95.66
2023-05-18T03:50:50.061Z,95.78
2023-05-18T03:51:54.463Z,95.85
2023-05-18T03:52:56.703Z,95.88
2023-05-18T03:53:58.856Z,96.02
2023-05-18T03:55:04.212Z,95.82
2023-05-18T03:56:06.623Z,95.78
2023-05-18T03:57:08.773Z,95.66
2023-05-18T03:58:10.929Z,95.80
2023-05-18T03:59:13.452Z,95.49
2023-05-18T04:00:16.071Z,95.43
2023-05-18T04:01:19.003Z,95.55
2023-05-18T04:02:21.277Z,95.65
2023-05-18T04:03:25.043Z,95.33
2023-05-18T04:04:27.569Z,95.58
2023-05-18T04:05:30.388Z,95.47
2023-05-18T04:06:35.304Z,95.46
2023-05-18T04:07:43.948Z,95.61
2023-05-18T04:08:46.359Z,95.93
2023-05-18T04:09:49.225Z,95.58
2023-05-18T04:10:52.128Z,95.19
2023-05-18T04:11:54.253Z,95.01
2023-05-18T04:12:56.518Z,95.29
2023-05-18T04:14:01.009Z,95.01
2023-05-18T04:15:04.084Z,95.29
2023-05-18T04:16:07.248Z,95.18
2023-05-18T04:17:10.205Z,95.29
2023-05-18T04:18:13.769Z,94.95
2023-05-18T04:19:16.159Z,94.83
2023-05-18T04:20:18.801Z,94.43
2023-05-18T04:21:20.968Z,94.78
2023-05-18T04:22:23.154Z,94.77
2023-05-18T04:23:25.730Z,94.29
2023-05-18T04:24:27.898Z,94.09
2023-05-18T04:25:30.452Z,94.07
2023-05-18T04:26:34.696Z,93.66
2023-05-18T04:27:36.850Z,93.62
2023-05-18T04:28:38.993Z,93.78
2023-05-18T04:29:43.970Z,93.80
2023-05-18T04:30:46.252Z,94.12
2023-05-18T04:31:48.963Z,93.40
2023-05-18T04:32:51.333Z,92.98
2023-05-18T04:33:53.858Z,93.27
2023-05-18T04:34:58.568Z,93.64
2023-05-18T04:36:05.131Z,93.58
2023-05-18T04:37:07.291Z,93.55
2023-05-18T04:38:10.837Z,93.78
2023-05-18T04:39:13.279Z,93.68
2023-05-18T04:40:17.260Z,93.50
2023-05-18T04:41:23.091Z,93.73
2023-05-18T04:42:27.633Z,93.89
2023-05-18T04:43:29.779Z,93.78
2023-05-18T04:44:35.013Z,93.67
2023-05-18T04:45:37.273Z,93.56
2023-05-18T04:46:40.872Z,93.37
2023-05-18T04:47:47.071Z,93.34
2023-05-18T04:48:50.054Z,93.47
2023-05-18T04:49:52.441Z,93.75
2023-05-18T04:50:54.622Z,93.75
2023-05-18T04:51:57.120Z,93.60
2023-05-18T04:53:02.190Z,93.33
2023-05-18T04:54:06.398Z,92.83
2023-05-18T04:55:10.925Z,93.18
2023-05-18T04:56:14.015Z,92.81
2023-05-18T04:57:16.423Z,92.84
2023-05-18T04:58:18.671Z,92.91
2023-05-18T04:59:20.946Z,92.71
2023-05-18T05:00:29.073Z,93.08
2023-05-18T05:01:31.496Z,93.02
2023-05-18T05:02:33.833Z,92.67
2023-05-18T05:03:36.165Z,92.99
2023-05-18T05:04:38.387Z,93.00
2023-05-18T05:05:40.643Z,92.71
2023-05-18T05:06:42.794Z,92.09
2023-05-18T05:07:45.550Z,92.49
2023-05-18T05:08:47.770Z,92.50
2023-05-18T05:09:49.957Z,92.81
2023-05-18T05:10:52.104Z,92.85
2023-05-18T05:11:56.356Z,92.84
2023-05-18T05:12:58.925Z,92.60
2023-05-18T05:14:02.947Z,92.69
2023-05-18T05:15:05.625Z,93.07
2023-05-18T05:16:07.833Z,92.79
2023-05-18T05:17:10.180Z,92.40
2023-05-18T05:18:12.441Z,92.37
2023-05-18T05:19:14.712Z,92.62
2023-05-18T05:20:17.297Z,92.39
2023-05-18T05:21:19.398Z,92.64
2023-05-18T05:22:21.590Z,92.72
2023-05-18T05:23:23.784Z,92.56
2023-05-18T05:24:25.951Z,92.70
2023-05-18T05:25:28.128Z,92.28
2023-05-18T05:26:30.408Z,92.77
2023-05-18T05:27:32.583Z,93.06
2023-05-18T05:28:34.718Z,92.45
2023-05-18T05:29:36.889Z,92.29
2023-05-18T05:30:39.100Z,91.96
2023-05-18T05:31:41.500Z,92.02
2023-05-18T05:32:43.825Z,92.08
2023-05-18T05:33:46.056Z,92.39
2023-05-18T05:34:50.390Z,91.94
2023-05-18T05:35:52.565Z,92.66
2023-05-18T05:36:54.700Z,92.56
2023-05-18T05:37:56.917Z,91.80
2023-05-18T05:38:59.092Z,92.09
2023-05-18T05:40:01.243Z,90.59
2023-05-18T05:41:03.469Z,90.74
2023-05-18T05:42:06.598Z,91.07
2023-05-18T05:43:08.759Z,90.74
2023-05-18T05:44:10.930Z,91.21
2023-05-18T05:45:13.147Z,90.49
2023-05-18T05:46:15.822Z,90.80
2023-05-18T05:47:18.099Z,91.35
2023-05-18T05:48:20.660Z,91.22
2023-05-18T05:49:22.991Z,91.19
2023-05-18T05:50:27.742Z,91.14
2023-05-18T05:51:29.911Z,91.04
2023-05-18T05:52:32.151Z,91.40
2023-05-18T05:53:34.370Z,91.82
2023-05-18T05:54:36.510Z,92.05
2023-05-18T05:55:41.381Z,91.85
2023-05-18T05:56:43.709Z,92.02
2023-05-18T05:57:45.909Z,91.69
2023-05-18T05:58:48.063Z,92.00
2023-05-18T05:59:50.221Z,91.98
2023-05-18T06:00:52.477Z,92.19
2023-05-18T06:01:54.697Z,92.30
2023-05-18T06:02:57.033Z,91.37
2023-05-18T06:03:59.251Z,90.92
2023-05-18T06:05:01.417Z,92.21
2023-05-18T06:06:03.758Z,91.76
2023-05-18T06:07:06.330Z,91.56
2023-05-18T06:08:09.238Z,91.98
2023-05-18T06:09:11.468Z,91.99
2023-05-18T06:10:13.609Z,92.05
2023-05-18T06:11:15.725Z,92.01
2023-05-18T06:12:17.924Z,92.93
2023-05-18T06:13:20.119Z,92.73
2023-05-18T06:14:22.250Z,93.50
2023-05-18T06:15:24.434Z,92.76
2023-05-18T06:16:26.693Z,92.75
2023-05-18T06:17:28.912Z,92.82
2023-05-18T06:18:32.094Z,92.44
2023-05-18T06:19:34.361Z,92.47
2023-05-18T06:20:36.547Z,92.30
2023-05-18T06:21:39.216Z,92.15
2023-05-18T06:22:41.499Z,91.96
2023-05-18T06:23:44.557Z,91.78
2023-05-18T06:24:47.213Z,91.71
2023-05-18T06:25:50.066Z,91.99
2023-05-18T06:26:52.272Z,91.91
2023-05-18T06:27:54.968Z,92.00
2023-05-18T06:28:57.491Z,92.40
2023-05-18T06:29:59.622Z,92.77
2023-05-18T06:31:01.885Z,92.60
2023-05-18T06:32:04.341Z,92.71
2023-05-18T06:33:07.392Z,92.67
2023-05-18T06:34:09.606Z,91.51
2023-05-18T06:35:13.102Z,91.53
2023-05-18T06:36:16.190Z,91.96
2023-05-18T06:37:19.329Z,92.02
2023-05-18T06:38:21.496Z,91.95
2023-05-18T06:39:23.707Z,92.00
2023-05-18T06:40:25.960Z,92.01
2023-05-18T06:41:28.157Z,91.65
2023-05-18T06:42:30.404Z,91.59
2023-05-18T06:43:32.544Z,90.44
2023-05-18T06:44:36.032Z,90.25
2023-05-18T06:45:38.474Z,90.74
2023-05-18T06:46:41.582Z,90.43
2023-05-18T06:47:43.969Z,90.20
2023-05-18T06:48:47.183Z,90.64
2023-05-18T06:49:49.328Z,90.67
2023-05-18T06:50:51.501Z,90.90
2023-05-18T06:51:53.687Z,91.39
2023-05-18T06:52:55.952Z,91.84
2023-05-18T06:53:58.091Z,92.34
2023-05-18T06:55:01.419Z,92.51
2023-05-18T06:56:04.949Z,92.83
2023-05-18T06:57:07.255Z,92.41
2023-05-18T06:58:09.379Z,92.64
2023-05-18T06:59:11.617Z,93.37
2023-05-18T07:00:14.124Z,93.32
2023-05-18T07:01:17.948Z,93.56
2023-05-18T07:02:21.324Z,93.53
2023-05-18T07:03:23.587Z,92.39
2023-05-18T07:04:25.838Z,92.43
2023-05-18T07:05:28.444Z,92.58
2023-05-18T07:06:31.325Z,92.69
2023-05-18T07:07:33.580Z,93.18
2023-05-18T07:08:38.605Z,92.78
2023-05-18T07:09:43.281Z,92.65
2023-05-18T07:10:45.269Z,93.39
2023-05-18T07:11:47.324Z,93.28
2023-05-18T07:12:49.907Z,93.50
2023-05-18T07:13:52.115Z,93.00
2023-05-18T07:14:54.324Z,92.73
2023-05-18T07:15:56.679Z,93.07
2023-05-18T07:16:58.934Z,92.50
2023-05-18T07:18:01.137Z,92.40
2023-05-18T07:19:05.078Z,92.39
2023-05-18T07:20:07.958Z,92.64
2023-05-18T07:21:10.296Z,92.61
2023-05-18T07:22:12.621Z,92.71
2023-05-18T07:23:15.034Z,92.29
2023-05-18T07:24:17.201Z,92.04
2023-05-18T07:25:19.527Z,92.28
2023-05-18T07:26:22.674Z,92.27
2023-05-18T07:27:25.058Z,92.08
2023-05-18T07:28:27.218Z,91.83
2023-05-18T07:29:30.050Z,91.76
2023-05-18T07:30:32.794Z,91.65
2023-05-18T07:31:38.989Z,92.21
2023-05-18T07:32:45.190Z,91.45
2023-05-18T07:33:48.187Z,91.67
2023-05-18T07:34:50.363Z,91.94
2023-05-18T07:35:52.659Z,92.24
2023-05-18T07:36:54.943Z,92.22
2023-05-18T07:37:57.504Z,92.16
2023-05-18T07:39:00.374Z,92.32
2023-05-18T07:40:04.535Z,91.95
2023-05-18T07:41:06.696Z,92.18
2023-05-18T07:42:09.062Z,92.10
2023-05-18T07:43:11.791Z,92.27
2023-05-18T07:44:14.531Z,92.27
2023-05-18T07:45:16.729Z,92.20
2023-05-18T07:46:19.130Z,92.15
2023-05-18T07:47:21.683Z,92.12
2023-05-18T07:48:23.859Z,91.47
2023-05-18T07:49:44.599Z,91.03
2023-05-18T07:50:46.837Z,92.07
2023-05-18T07:51:50.138Z,90.87
2023-05-18T07:52:52.332Z,91.25
2023-05-18T07:53:54.482Z,90.97
2023-05-18T07:55:00.221Z,90.66
2023-05-18T07:56:02.714Z,89.70
2023-05-18T07:57:05.587Z,90.55
2023-05-18T07:58:07.805Z,89.97
2023-05-18T07:59:10.385Z,89.47
2023-05-18T08:00:13.306Z,89.37
2023-05-18T08:01:15.502Z,89.48
2023-05-18T08:02:19.833Z,89.98
2023-05-18T08:03:22.812Z,89.68
2023-05-18T08:04:25.227Z,89.63
2023-05-18T08:05:27.521Z,88.69
2023-05-18T08:06:30.092Z,89.00
2023-05-18T08:07:33.032Z,89.37
2023-05-18T08:08:38.521Z,89.67
2023-05-18T08:09:40.882Z,89.92
2023-05-18T08:10:43.074Z,89.02
2023-05-18T08:11:45.331Z,88.97
2023-05-18T08:12:47.563Z,88.65
2023-05-18T08:13:49.990Z,88.77
2023-05-18T08:14:52.115Z,88.88
2023-05-18T08:16:07.159Z,89.22
2023-05-18T08:17:13.391Z,89.06
2023-05-18T08:18:15.958Z,89.60
2023-05-18T08:19:18.260Z,89.17
2023-05-18T08:20:20.810Z,88.58
2023-05-18T08:21:23.068Z,88.72
2023-05-18T08:22:25.260Z,88.35
2023-05-18T08:23:27.428Z,88.69
2023-05-18T08:24:29.562Z,88.12
2023-05-18T08:25:32.019Z,87.68
2023-05-18T08:26:34.387Z,88.25
2023-05-18T08:27:36.562Z,88.10
2023-05-18T08:28:38.744Z,88.48
2023-05-18T08:29:41.182Z,88.15
2023-05-18T08:30:43.356Z,88.30
2023-05-18T08:31:47.622Z,87.23
2023-05-18T08:32:51.636Z,86.94
2023-05-18T08:33:53.786Z,87.24
2023-05-18T08:34:56.065Z,86.99
2023-05-18T08:35:58.258Z,86.41
2023-05-18T08:37:00.609Z,86.79
2023-05-18T08:38:05.351Z,86.95
2023-05-18T08:39:09.496Z,87.26
2023-05-18T08:40:12.965Z,86.79
2023-05-18T08:41:21.414Z,86.74
2023-05-18T08:42:41.593Z,87.77
2023-05-18T08:43:53.665Z,87.64
2023-05-18T08:45:03.179Z,87.96
2023-05-18T08:46:11.255Z,88.09
2023-05-18T08:47:15.398Z,88.33
2023-05-18T08:48:18.127Z,86.73
2023-05-18T08:49:21.937Z,86.80
2023-05-18T08:50:26.593Z,87.20
2023-05-18T08:51:30.074Z,87.44
2023-05-18T08:52:37.066Z,87.95
2023-05-18T08:53:39.517Z,87.78
2023-05-18T08:54:41.768Z,87.97
2023-05-18T08:55:45.487Z,88.44
2023-05-18T08:56:48.389Z,86.96
2023-05-18T08:57:56.344Z,87.24
2023-05-18T08:58:59.031Z,86.37
2023-05-18T09:00:02.361Z,85.97
2023-05-18T09:01:04.748Z,85.15
2023-05-18T09:02:07.243Z,85.85
2023-05-18T09:03:09.783Z,85.23
2023-05-18T09:04:12.871Z,86.08
2023-05-18T09:05:15.754Z,85.42
2023-05-18T09:06:18.513Z,84.99
2023-05-18T09:07:21.021Z,85.93
2023-05-18T09:08:23.810Z,86.11
2023-05-18T09:09:26.122Z,86.24
2023-05-18T09:10:28.314Z,85.02
2023-05-18T09:11:32.964Z,83.54
2023-05-18T09:12:35.011Z,84.25
2023-05-18T09:13:38.277Z,84.38
2023-05-18T09:14:41.589Z,84.04
2023-05-18T09:15:43.746Z,83.48
2023-05-18T09:16:45.909Z,84.49
2023-05-18T09:17:48.109Z,84.61
2023-05-18T09:18:50.286Z,84.37
2023-05-18T09:19:52.480Z,84.37
2023-05-18T09:20:54.685Z,83.77
2023-05-18T09:21:56.893Z,83.08
2023-05-18T09:22:59.908Z,83.39
2023-05-18T09:24:02.108Z,83.19
2023-05-18T09:25:06.163Z,82.75
2023-05-18T09:26:11.533Z,82.89
2023-05-18T09:27:13.824Z,83.80
2023-05-18T09:28:37.114Z,82.75
2023-05-18T09:29:53.131Z,82.33
2023-05-18T09:30:55.487Z,82.06
2023-05-18T09:31:57.868Z,82.57
2023-05-18T09:33:00.214Z,82.54
2023-05-18T09:34:03.494Z,81.33
2023-05-18T09:35:06.987Z,80.18
2023-05-18T09:36:10.058Z,81.29
2023-05-18T09:37:12.337Z,81.32
2023-05-18T09:38:22.219Z,80.83
2023-05-18T09:39:24.484Z,81.58
2023-05-18T09:40:29.711Z,81.50
2023-05-18T09:41:31.886Z,80.64
2023-05-18T09:42:44.267Z,79.99
2023-05-18T09:43:49.010Z,80.77
2023-05-18T09:44:51.135Z,83.47
2023-05-18T09:45:53.297Z,81.52
2023-05-18T09:46:58.410Z,81.01
2023-05-18T09:48:00.662Z,79.19
2023-05-18T09:49:04.161Z,79.57
2023-05-18T09:50:07.149Z,80.41
2023-05-18T09:51:11.571Z,80.15
2023-05-18T09:52:13.861Z,80.26
2023-05-18T09:53:16.088Z,79.89
2023-05-18T09:54:18.265Z,81.28
2023-05-18T09:55:20.931Z,81.44
2023-05-18T09:56:27.244Z,80.72
2023-05-18T09:57:29.469Z,84.10
2023-05-18T09:58:33.964Z,81.17
2023-05-18T09:59:36.830Z,80.14
2023-05-18T10:00:49.532Z,78.83
2023-05-18T10:02:01.431Z,78.24
2023-05-18T10:03:04.070Z,77.65
2023-05-18T10:04:06.515Z,78.02
2023-05-18T10:05:28.034Z,77.15
2023-05-18T10:06:31.773Z,77.76
2023-05-18T10:07:34.996Z,77.70
2023-05-18T10:08:38.040Z,77.36
2023-05-18T10:09:45.168Z,77.02
2023-05-18T10:10:49.638Z,76.93
2023-05-18T10:11:51.858Z,77.60
2023-05-18T10:12:55.266Z,77.18
2023-05-18T10:13:58.591Z,76.82
2023-05-18T10:15:01.173Z,77.79
2023-05-18T10:16:04.926Z,79.09
2023-05-18T10:17:14.973Z,79.71
2023-05-18T10:18:23.018Z,80.64
2023-05-18T10:19:25.710Z,80.90
2023-05-18T10:20:28.042Z,79.40
2023-05-18T10:21:31.244Z,81.63
2023-05-18T10:22:35.492Z,80.95
2023-05-18T10:23:40.681Z,79.41
2023-05-18T10:24:46.286Z,80.70
2023-05-18T10:25:50.130Z,78.46
2023-05-18T10:26:54.196Z,77.71
2023-05-18T10:28:01.026Z,78.27
2023-05-18T10:29:04.508Z,77.72
2023-05-18T10:30:08.208Z,79.01
2023-05-18T10:31:10.759Z,78.89
2023-05-18T10:32:13.318Z,79.14
2023-05-18T10:33:28.013Z,77.64
2023-05-18T10:34:32.587Z,76.92
2023-05-18T10:35:35.525Z,76.78
2023-05-18T10:36:38.157Z,77.20
2023-05-18T10:37:43.873Z,76.82
2023-05-18T10:38:47.038Z,76.14
2023-05-18T10:39:51.031Z,76.77
2023-05-18T10:40:57.754Z,77.61
2023-05-18T10:42:00.828Z,76.94
2023-05-18T10:43:04.175Z,76.74
2023-05-18T10:44:06.920Z,76.93
2023-05-18T10:45:10.192Z,77.28
2023-05-18T10:46:13.938Z,77.74
2023-05-18T10:47:16.431Z,78.14
2023-05-18T10:48:20.124Z,77.24
2023-05-18T10:49:25.247Z,77.21
2023-05-18T10:50:28.080Z,77.74
2023-05-18T10:51:31.691Z,79.08
2023-05-18T10:52:34.883Z,76.80
2023-05-18T10:53:37.072Z,75.50
2023-05-18T10:54:40.888Z,74.74
2023-05-18T10:55:43.227Z,76.20
2023-05-18T10:56:48.007Z,75.55
2023-05-18T10:57:55.077Z,75.46
2023-05-18T10:58:57.353Z,75.26
2023-05-18T10:59:59.559Z,75.57
2023-05-18T11:01:03.421Z,75.97
2023-05-18T11:02:06.119Z,76.62
2023-05-18T11:03:13.633Z,75.02
2023-05-18T11:04:15.839Z,77.01
2023-05-18T11:05:26.335Z,75.78
2023-05-18T11:06:28.555Z,75.91
2023-05-18T11:07:33.973Z,75.99
2023-05-18T11:08:44.390Z,76.69
2023-05-18T11:09:48.934Z,77.17
2023-05-18T11:11:00.626Z,78.13
2023-05-18T11:12:02.893Z,76.32
2023-05-18T11:13:07.183Z,76.77
2023-05-18T11:14:09.447Z,76.88
2023-05-18T11:15:11.930Z,77.57
2023-05-18T11:16:16.044Z,78.13
2023-05-18T11:17:22.083Z,78.46
2023-05-18T11:18:43.549Z,78.55
2023-05-18T11:20:09.791Z,78.37
2023-05-18T11:21:36.315Z,79.15
2023-05-18T11:22:57.036Z,77.85
2023-05-18T11:24:18.106Z,78.19
2023-05-18T11:25:29.107Z,77.74
2023-05-18T11:26:31.363Z,78.97
2023-05-18T11:27:34.170Z,79.40
2023-05-18T11:28:43.412Z,80.33
2023-05-18T11:29:46.695Z,80.47
2023-05-18T11:30:50.399Z,82.38
2023-05-18T11:31:54.308Z,80.08
2023-05-18T11:33:10.301Z,80.02
2023-05-18T11:34:46.485Z,80.08
2023-05-18T11:36:02.256Z,80.03
2023-05-18T11:37:05.633Z,79.48
2023-05-18T11:38:08.649Z,79.37
2023-05-18T11:39:11.462Z,78.87
2023-05-18T11:40:47.324Z,79.59
2023-05-18T11:42:02.771Z,79.55
2023-05-18T11:43:04.936Z,79.21
2023-05-18T11:44:12.844Z,79.07
2023-05-18T11:45:15.004Z,78.76
2023-05-18T11:46:21.472Z,78.50
2023-05-18T11:47:29.864Z,79.13
2023-05-18T11:48:33.135Z,79.35
2023-05-18T11:49:46.330Z,79.18
2023-05-18T11:50:48.578Z,79.20
2023-05-18T11:52:24.799Z,79.10
2023-05-18T11:53:27.396Z,79.64
2023-05-18T11:54:34.602Z,80.36
2023-05-18T11:55:41.617Z,79.31
2023-05-18T11:56:44.197Z,79.17
2023-05-18T11:57:52.935Z,79.93
2023-05-18T11:59:14.511Z,80.61
2023-05-18T12:00:17.232Z,80.47
2023-05-18T12:01:19.475Z,80.05
2023-05-18T12:02:24.717Z,79.42
2023-05-18T12:03:27.120Z,80.13
2023-05-18T12:04:30.150Z,79.72
2023-05-18T12:05:34.324Z,80.07
2023-05-18T12:06:37.865Z,80.64
2023-05-18T12:07:40.585Z,80.29
2023-05-18T12:08:44.737Z,79.73
2023-05-18T12:09:47.918Z,79.82
2023-05-18T12:10:50.709Z,79.52
2023-05-18T12:11:53.029Z,78.36
2023-05-18T12:12:55.339Z,79.26
2023-05-18T12:13:57.720Z,79.54
2023-05-18T12:15:05.493Z,79.11
2023-05-18T12:16:07.780Z,79.25
2023-05-18T12:17:10.830Z,79.42
2023-05-18T12:18:14.378Z,79.36
2023-05-18T12:19:18.402Z,79.41
2023-05-18T12:20:28.284Z,78.02
2023-05-18T12:21:31.260Z,78.95
2023-05-18T12:22:33.470Z,77.87
2023-05-18T12:23:39.638Z,77.97
2023-05-18T12:24:42.601Z,78.19
2023-05-18T12:25:44.881Z,78.58
2023-05-18T12:26:47.513Z,78.89
2023-05-18T12:27:51.791Z,79.54
2023-05-18T12:28:57.375Z,79.76
2023-05-18T12:29:59.837Z,80.07
2023-05-18T12:31:07.375Z,80.66
2023-05-18T12:32:11.030Z,80.64
2023-05-18T12:33:13.209Z,80.05
2023-05-18T12:34:16.008Z,79.48
2023-05-18T12:35:22.493Z,78.62
2023-05-18T12:36:25.813Z,78.03
2023-05-18T12:37:34.188Z,77.38
2023-05-18T12:38:41.010Z,77.11
2023-05-18T12:39:43.141Z,75.97
2023-05-18T12:40:48.612Z,75.42
2023-05-18T12:41:50.918Z,75.59
2023-05-18T12:42:54.327Z,75.06
2023-05-18T12:43:56.548Z,75.07
2023-05-18T12:44:58.677Z,74.61
2023-05-18T12:46:05.318Z,74.86
2023-05-18T12:47:07.744Z,75.08
2023-05-18T12:48:12.066Z,75.35
2023-05-18T12:49:14.296Z,75.71
2023-05-18T12:50:16.520Z,76.20
2023-05-18T12:51:19.526Z,74.23
2023-05-18T12:52:21.973Z,73.58
2023-05-18T12:53:24.276Z,73.46
2023-05-18T12:54:29.982Z,73.97
2023-05-18T12:55:33.348Z,74.72
2023-05-18T12:57:02.134Z,74.70
2023-05-18T12:58:05.263Z,75.63
2023-05-18T12:59:08.321Z,75.61
2023-05-18T13:00:12.596Z,75.97
2023-05-18T13:01:14.758Z,75.72
2023-05-18T13:02:37.014Z,74.27
2023-05-18T13:03:40.580Z,73.85
2023-05-18T13:04:42.828Z,74.19
2023-05-18T13:05:46.330Z,74.45
2023-05-18T13:06:48.706Z,74.93
2023-05-18T13:07:52.698Z,74.05
2023-05-18T13:08:58.021Z,74.89
2023-05-18T13:10:20.448Z,75.17
2023-05-18T13:11:26.545Z,75.36
2023-05-18T13:12:44.794Z,75.92
2023-05-18T13:14:10.737Z,75.03
2023-05-18T13:15:22.634Z,75.99
2023-05-18T13:16:24.981Z,75.50
2023-05-18T13:17:27.685Z,75.14
2023-05-18T13:18:29.824Z,75.09
2023-05-18T13:19:35.079Z,75.34
2023-05-18T13:20:50.933Z,75.79
2023-05-18T13:21:56.693Z,75.55
2023-05-18T13:23:20.013Z,76.29
2023-05-18T13:24:22.148Z,75.65
2023-05-18T13:25:24.344Z,75.64
2023-05-18T13:26:27.229Z,75.46
2023-05-18T13:27:29.650Z,75.75
2023-05-18T13:28:31.801Z,75.79
2023-05-18T13:29:34.594Z,75.71
2023-05-18T13:30:37.232Z,75.72
2023-05-18T13:31:39.416Z,75.93
2023-05-18T13:32:41.646Z,76.02
2023-05-18T13:33:43.849Z,76.12
2023-05-18T13:34:46.967Z,76.62
2023-05-18T13:35:49.915Z,75.08
2023-05-18T13:36:52.284Z,75.51
2023-05-18T13:37:54.793Z,75.85
2023-05-18T13:38:56.986Z,76.38
2023-05-18T13:39:59.154Z,76.63
2023-05-18T13:41:01.902Z,76.79
2023-05-18T13:42:04.155Z,77.14
2023-05-18T13:43:06.407Z,76.87
2023-05-18T13:44:08.538Z,77.37
2023-05-18T13:45:13.249Z,77.48
2023-05-18T13:46:18.652Z,77.53
2023-05-18T13:47:21.196Z,78.00